Flight Track Log - Related Links

Times and Time Zones

All times are in EDT time to prevent confusion due to time zone crossing. See the N75ZM flight status page for this flight to view local times or setup timezone preferences in your user account.

Time Position Orientation Groundspeed Altitude Reporting Facility
EDT Latitude Longitude Course Direction KTS MPH feet Rate Location/Type
Thu 07:13:16 AM 33.9000 -84.3000 360° North 112 129 2,100  Level Atlanta TRACON
Thu 07:14:10 AM 33.9333 -84.3000 360° North 110 127 3,000 900 Climbing Atlanta TRACON
Thu 07:15:16 AM 33.9333 -84.3167 270° West 110 127 3,900 905 Climbing Atlanta TRACON
Thu 07:16:16 AM 33.9167 -84.3500 239° Southwest 106 122 4,900 400 Climbing Atlanta TRACON
Thu 07:18:16 AM 33.8500 -84.3833 203° Southwest 161 185 5,100 29 Climbing Atlanta TRACON
Thu 07:20:00 AM 33.7876 -84.3417 151° Southeast  Level FlightAware Approximate
Thu 07:23:16 AM 33.6167 -84.4000 188° South 174 200 5,100  Level Atlanta TRACON
Thu 07:24:16 AM 33.5833 -84.4000 180° South 161 185 5,100  Level Atlanta TRACON
Thu 07:25:16 AM 33.5333 -84.4000 180° South 160 184 5,100  Level Atlanta TRACON
Thu 07:26:10 AM 33.4833 -84.4000 180° South 160 184 5,100 33 Level Atlanta TRACON
Thu 07:27:00 AM 33.4995 -84.3425 187° South  Level Estimated
Thu 07:28:00 AM 33.4587 -84.3490 188° South  Level FlightAware Approximate
Thu 07:28:16 AM 33.4000 -84.4000 180° South 162 186 5,200  Level Atlanta TRACON
Thu 07:29:16 AM 33.3500 -84.4000 180° South 156 180 5,400 500 Climbing Atlanta TRACON
Thu 07:30:16 AM 33.3167 -84.4000 180° South 126 145 6,200 630 Climbing Atlanta TRACON
Thu 07:32:17 AM 33.2500 -84.4000 180° South 130 150 7,300 630 Climbing Atlanta TRACON
Thu 07:33:17 AM 33.2000 -84.4000 180° South 127 146 8,100 400 Climbing Atlanta TRACON
Thu 07:34:17 AM 33.1667 -84.4000 180° South 139 160 8,100 50 Level Atlanta TRACON
Thu 07:35:17 AM 33.1333 -84.4000 180° South 160 184 8,200  Climbing Atlanta TRACON
Thu 07:37:00 AM 33.0634 -84.4117 188° South  Level FlightAware Approximate
Thu 07:39:17 AM 32.9500 -84.4000 180° South 160 184 8,100  Level Atlanta TRACON
Thu 07:41:11 AM 32.8667 -84.4000 180° South 156 180 8,100  Level Atlanta TRACON
Thu 07:42:11 AM 32.8167 -84.4000 180° South 160 184 8,100  Level Atlanta TRACON
Thu 07:43:11 AM 32.7833 -84.3833 157° South 156 180 8,100  Level Atlanta TRACON
Thu 07:44:00 AM 32.7796 -84.3667 180° South  Level FlightAware Approximate
Thu 07:44:17 AM 32.7333 -84.3833 180° South 157 181 8,100  Level Atlanta TRACON
Thu 07:45:17 AM 32.6833 -84.3833 180° South 153 176 8,100  Level Atlanta TRACON
Thu 07:46:17 AM 32.6500 -84.3833 180° South 150 173 8,100  Level Atlanta TRACON
Thu 07:47:17 AM 32.6000 -84.3833 180° South 149 171 8,100  Level Atlanta TRACON
Thu 07:48:17 AM 32.5667 -84.3833 180° South 151 174 8,100  Level Atlanta TRACON
Thu 07:49:17 AM 32.5167 -84.3833 180° South 147 169 8,100  Level Atlanta TRACON
Thu 07:50:17 AM 32.4833 -84.3833 180° South 147 169 8,100  Level Atlanta TRACON
Thu 07:51:18 AM 32.4333 -84.3833 180° South 149 171 8,100  Level Atlanta TRACON
Thu 07:52:18 AM 32.4000 -84.3833 180° South 147 169 8,100  Level Atlanta TRACON
Thu 07:53:12 AM 32.3667 -84.3833 180° South 151 174 8,100  Level Atlanta TRACON
Thu 07:54:15 AM 32.3144 -84.3847 181° South 155 178 8,100  Level Jacksonville Center
Thu 07:55:15 AM 32.2706 -84.3814 176° South 160 184 8,100  Level Jacksonville Center
Thu 07:56:15 AM 32.2289 -84.3808 179° South 160 184 8,100  Level Jacksonville Center
Thu 07:57:15 AM 32.1850 -84.3803 179° South 160 184 8,100  Level Jacksonville Center
Thu 07:58:15 AM 32.1433 -84.3794 179° South 160 184 8,100  Level Jacksonville Center
Thu 07:59:15 AM 32.0972 -84.3811 182° South 160 184 8,100  Level Jacksonville Center
Thu 08:00:15 AM 32.0533 -84.3781 177° South 160 184 8,100  Level Jacksonville Center
Thu 08:01:15 AM 32.0117 -84.3772 179° South 160 184 8,100  Level Jacksonville Center
Thu 08:02:15 AM 31.9678 -84.3792 182° South 160 184 8,100  Level Jacksonville Center
Thu 08:03:15 AM 31.9239 -84.3783 179° South 160 184 8,100  Level Jacksonville Center
Thu 08:04:15 AM 31.8803 -84.3753 177° South 160 184 8,100  Level Jacksonville Center
Thu 08:05:15 AM 31.8364 -84.3744 179° South 160 184 8,100  Level Jacksonville Center
Thu 08:06:15 AM 31.7925 -84.3764 182° South 160 184 8,100  Level Jacksonville Center
Thu 08:07:15 AM 31.7508 -84.3731 176° South 160 184 8,100  Level Jacksonville Center
Thu 08:08:15 AM 31.7069 -84.3725 179° South 160 184 8,100  Level Jacksonville Center
Thu 08:09:15 AM 31.6653 -84.3717 179° South 160 184 8,100  Level Jacksonville Center
Thu 08:10:15 AM 31.6214 -84.3711 179° South 160 184 8,100  Level Jacksonville Center
Thu 08:11:15 AM 31.5775 -84.3703 179° South 160 184 8,100  Level Jacksonville Center
Thu 08:12:15 AM 31.5336 -84.3697 179° South 160 184 8,100  Level Jacksonville Center
Thu 08:13:15 AM 31.4919 -84.3667 176° South 160 184 8,100  Level Jacksonville Center
Thu 08:14:15 AM 31.4481 -84.3658 179° South 160 184 8,100  Level Jacksonville Center
Thu 08:15:15 AM 31.4042 -84.3653 179° South 160 184 8,100  Level Jacksonville Center
Thu 08:16:15 AM 31.3603 -84.3669 182° South 160 184 8,100  Level Jacksonville Center
Thu 08:17:15 AM 31.3186 -84.3664 179° South 160 184 8,100  Level Jacksonville Center
Thu 08:18:15 AM 31.2747 -84.3631 176° South 160 184 8,100  Level Jacksonville Center
Thu 08:19:15 AM 31.2331 -84.3625 179° South 160 184 8,100  Level Jacksonville Center
Thu 08:20:15 AM 31.1892 -84.3619 179° South 160 184 8,100  Level Jacksonville Center
Thu 08:21:15 AM 31.1456 -84.3611 179° South 160 184 8,100  Level Jacksonville Center
Thu 08:22:15 AM 31.1058 -84.3631 182° South 160 184 8,100 -50 Level Jacksonville Center
Thu 08:23:15 AM 31.0619 -84.3597 176° South 160 184 8,000 -300 Descending Jacksonville Center
Thu 08:24:15 AM 31.0161 -84.3592 179° South 160 184 7,500 -500 Descending Jacksonville Center
Thu 08:25:15 AM 30.9700 -84.3583 179° South 160 184 7,000 -550 Descending Jacksonville Center
Thu 08:26:15 AM 30.9242 -84.3600 182° South 165 190 6,400 -550 Descending Jacksonville Center
Thu 08:27:15 AM 30.8761 -84.3594 179° South 165 190 5,900 -500 Descending Jacksonville Center
Thu 08:29:00 AM 30.8060 -84.3560 178° South  Level FlightAware Approximate
Thu 08:36:00 AM 30.5250 -84.3500 180° South  Level FlightAware Approximate
Thu 08:37:00 AM 30.4849 -84.3500 180° South  Level FlightAware Approximate
Thu 08:38:00 AM 30.4447 -84.3500 180° South  Level FlightAware Approximate
Thu 08:39:00 AM 30.4046 -84.3500 180° South  Level FlightAware Approximate
Thu 08:40:00 AM 30.3967 -84.3509 180° South  Level Estimated
Thu 08:41:00 AM 30.3967 -84.3509 180° South  Level Estimated
Thu 08:42:00 AM 30.3967 -84.3509 180° South  Level Estimated
Thu 08:43:00 AM 30.3967 -84.3509 180° South  Level Estimated
Thu 08:44:00 AM 30.3967 -84.3509 180° South  Level Estimated
Thu 08:45:00 AM 30.3967 -84.3509 180° South  Level Estimated
Thu 08:46:00 AM 30.3967 -84.3509 180° South  Level Estimated
Thu 08:47:00 AM 30.3967 -84.3509 180° South  Level Estimated
Thu 08:48:00 AM 30.3967 -84.3509 180° South  Level Estimated

Login

Don't have an account? Register now (free) for customized features, flight alerts, and more!